sensor_id;sensor_type;location;lat;lon;timestamp;pressure;altitude;pressure_sealevel;temperature;humidity
41515;BME280;27247;48.020;16.720;2022-09-09T00:03:12;99705.97;;;15.26;99.34
41515;BME280;27247;48.020;16.720;2022-09-09T00:12:11;99708.63;;;15.40;97.96
41515;BME280;27247;48.020;16.720;2022-09-09T00:16:26;99700.34;;;15.41;96.21
41515;BME280;27247;48.020;16.720;2022-09-09T00:21:17;99704.50;;;15.30;96.84
41515;BME280;27247;48.020;16.720;2022-09-09T00:25:32;99702.44;;;15.19;98.57
41515;BME280;27247;48.020;16.720;2022-09-09T00:29:53;99703.06;;;15.15;99.79
41515;BME280;27247;48.020;16.720;2022-09-09T00:34:18;99700.59;;;15.13;100.00
41515;BME280;27247;48.020;16.720;2022-09-09T00:38:37;99696.88;;;15.14;100.00
41515;BME280;27247;48.020;16.720;2022-09-09T00:42:58;99697.69;;;15.15;99.13
41515;BME280;27247;48.020;16.720;2022-09-09T00:52:25;99716.13;;;14.78;96.70
41515;BME280;27247;48.020;16.720;2022-09-09T01:01:40;99722.94;;;14.74;98.23
41515;BME280;27247;48.020;16.720;2022-09-09T01:10:07;99729.16;;;14.81;97.20
41515;BME280;27247;48.020;16.720;2022-09-09T01:18:48;99749.88;;;14.87;96.44
41515;BME280;27247;48.020;16.720;2022-09-09T01:27:23;99753.47;;;14.47;99.37
41515;BME280;27247;48.020;16.720;2022-09-09T01:31:55;99751.56;;;14.41;100.00
41515;BME280;27247;48.020;16.720;2022-09-09T01:36:15;99752.38;;;14.34;100.00
41515;BME280;27247;48.020;16.720;2022-09-09T01:40:28;99747.84;;;14.35;100.00
41515;BME280;27247;48.020;16.720;2022-09-09T01:44:38;99751.41;;;14.42;99.34
41515;BME280;27247;48.020;16.720;2022-09-09T01:48:51;99752.03;;;14.44;98.06
41515;BME280;27247;48.020;16.720;2022-09-09T01:53:02;99748.94;;;14.47;97.95
41515;BME280;27247;48.020;16.720;2022-09-09T01:57:25;99755.50;;;14.38;98.13
41515;BME280;27247;48.020;16.720;2022-09-09T02:02:07;99748.44;;;14.30;98.72
41515;BME280;27247;48.020;16.720;2022-09-09T02:06:26;99749.91;;;14.39;99.09
41515;BME280;27247;48.020;16.720;2022-09-09T02:10:53;99756.53;;;14.37;99.21
41515;BME280;27247;48.020;16.720;2022-09-09T02:15:14;99753.22;;;14.42;99.14
41515;BME280;27247;48.020;16.720;2022-09-09T02:19:50;99743.03;;;14.24;97.74
41515;BME280;27247;48.020;16.720;2022-09-09T02:24:04;99752.13;;;14.23;96.36
41515;BME280;27247;48.020;16.720;2022-09-09T02:28:20;99749.19;;;14.11;96.29
41515;BME280;27247;48.020;16.720;2022-09-09T02:32:34;99753.91;;;14.02;97.45
41515;BME280;27247;48.020;16.720;2022-09-09T02:36:46;99755.50;;;13.90;98.94
41515;BME280;27247;48.020;16.720;2022-09-09T02:40:56;99766.75;;;14.07;97.69
41515;BME280;27247;48.020;16.720;2022-09-09T02:45:09;99760.88;;;13.90;99.23
41515;BME280;27247;48.020;16.720;2022-09-09T02:54:10;99762.91;;;13.82;97.20
41515;BME280;27247;48.020;16.720;2022-09-09T02:58:23;99768.75;;;13.57;99.57
41515;BME280;27247;48.020;16.720;2022-09-09T03:02:34;99756.75;;;13.53;100.00
41515;BME280;27247;48.020;16.720;2022-09-09T03:06:44;99759.47;;;13.60;100.00
41515;BME280;27247;48.020;16.720;2022-09-09T03:10:55;99755.31;;;13.57;100.00
41515;BME280;27247;48.020;16.720;2022-09-09T03:15:06;99760.50;;;13.59;100.00
41515;BME280;27247;48.020;16.720;2022-09-09T03:19:17;99752.53;;;13.72;99.96
41515;BME280;27247;48.020;16.720;2022-09-09T03:23:28;99754.88;;;13.54;99.32
41515;BME280;27247;48.020;16.720;2022-09-09T03:27:39;99752.13;;;13.47;100.00
41515;BME280;27247;48.020;16.720;2022-09-09T03:31:50;99749.19;;;13.42;100.00
41515;BME280;27247;48.020;16.720;2022-09-09T03:36:01;99758.81;;;13.30;100.00
41515;BME280;27247;48.020;16.720;2022-09-09T03:40:12;99752.88;;;13.13;100.00
41515;BME280;27247;48.020;16.720;2022-09-09T03:44:22;99750.66;;;13.17;100.00
41515;BME280;27247;48.020;16.720;2022-09-09T03:48:33;99750.13;;;13.28;100.00
41515;BME280;27247;48.020;16.720;2022-09-09T03:52:43;99748.31;;;13.35;100.00
41515;BME280;27247;48.020;16.720;2022-09-09T03:56:53;99750.03;;;13.42;100.00
41515;BME280;27247;48.020;16.720;2022-09-09T04:01:09;99754.50;;;13.57;100.00
41515;BME280;27247;48.020;16.720;2022-09-09T04:05:20;99745.22;;;13.59;100.00
41515;BME280;27247;48.020;16.720;2022-09-09T04:09:30;99751.03;;;13.63;100.00
41515;BME280;27247;48.020;16.720;2022-09-09T04:13:41;99773.53;;;13.62;100.00
41515;BME280;27247;48.020;16.720;2022-09-09T04:17:51;99777.72;;;13.71;100.00
41515;BME280;27247;48.020;16.720;2022-09-09T04:22:02;99779.09;;;13.60;100.00
41515;BME280;27247;48.020;16.720;2022-09-09T04:26:12;99776.44;;;13.67;99.36
41515;BME280;27247;48.020;16.720;2022-09-09T04:30:23;99769.56;;;13.58;99.47
41515;BME280;27247;48.020;16.720;2022-09-09T04:34:34;99765.50;;;13.40;100.00
41515;BME280;27247;48.020;16.720;2022-09-09T04:38:45;99764.63;;;13.33;100.00
41515;BME280;27247;48.020;16.720;2022-09-09T04:42:59;99779.66;;;13.28;100.00
41515;BME280;27247;48.020;16.720;2022-09-09T04:47:10;99783.75;;;13.24;100.00
41515;BME280;27247;48.020;16.720;2022-09-09T04:51:21;99779.53;;;13.15;100.00
41515;BME280;27247;48.020;16.720;2022-09-09T04:55:32;99781.56;;;13.34;100.00
41515;BME280;27247;48.020;16.720;2022-09-09T04:59:42;99778.69;;;13.35;100.00
41515;BME280;27247;48.020;16.720;2022-09-09T05:03:52;99791.31;;;13.41;100.00
41515;BME280;27247;48.020;16.720;2022-09-09T05:08:07;99791.38;;;13.48;100.00
41515;BME280;27247;48.020;16.720;2022-09-09T05:12:18;99793.50;;;13.53;100.00
41515;BME280;27247;48.020;16.720;2022-09-09T05:16:29;99787.78;;;13.62;100.00
41515;BME280;27247;48.020;16.720;2022-09-09T05:20:40;99787.81;;;13.69;100.00
41515;BME280;27247;48.020;16.720;2022-09-09T05:24:52;99786.44;;;13.80;100.00
41515;BME280;27247;48.020;16.720;2022-09-09T05:29:02;99788.34;;;13.86;100.00
41515;BME280;27247;48.020;16.720;2022-09-09T05:33:13;99792.50;;;13.88;100.00
41515;BME280;27247;48.020;16.720;2022-09-09T05:37:23;99796.66;;;13.97;100.00
41515;BME280;27247;48.020;16.720;2022-09-09T05:41:33;99789.31;;;14.13;100.00
41515;BME280;27247;48.020;16.720;2022-09-09T05:45:45;99773.47;;;14.31;100.00
41515;BME280;27247;48.020;16.720;2022-09-09T05:49:56;99778.72;;;14.52;100.00
41515;BME280;27247;48.020;16.720;2022-09-09T05:54:07;99780.47;;;14.73;100.00
41515;BME280;27247;48.020;16.720;2022-09-09T05:58:17;99780.69;;;14.85;100.00
41515;BME280;27247;48.020;16.720;2022-09-09T06:02:28;99778.84;;;14.98;100.00
41515;BME280;27247;48.020;16.720;2022-09-09T06:06:38;99774.94;;;15.21;100.00
41515;BME280;27247;48.020;16.720;2022-09-09T06:10:49;99768.91;;;15.32;100.00
41515;BME280;27247;48.020;16.720;2022-09-09T06:15:01;99771.81;;;15.44;100.00
41515;BME280;27247;48.020;16.720;2022-09-09T06:19:15;99763.34;;;15.67;100.00
41515;BME280;27247;48.020;16.720;2022-09-09T06:23:25;99763.72;;;15.77;100.00
41515;BME280;27247;48.020;16.720;2022-09-09T06:27:36;99758.31;;;15.83;100.00
41515;BME280;27247;48.020;16.720;2022-09-09T06:31:46;99758.25;;;16.03;100.00
41515;BME280;27247;48.020;16.720;2022-09-09T06:35:57;99771.41;;;16.31;96.74
41515;BME280;27247;48.020;16.720;2022-09-09T06:40:08;99768.59;;;16.57;95.00
41515;BME280;27247;48.020;16.720;2022-09-09T06:44:19;99764.75;;;16.85;91.71
41515;BME280;27247;48.020;16.720;2022-09-09T06:48:30;99775.53;;;17.16;90.85
41515;BME280;27247;48.020;16.720;2022-09-09T06:52:40;99777.84;;;17.38;90.05
41515;BME280;27247;48.020;16.720;2022-09-09T06:56:50;99773.56;;;17.48;89.01
41515;BME280;27247;48.020;16.720;2022-09-09T07:01:05;99778.31;;;17.53;88.28
41515;BME280;27247;48.020;16.720;2022-09-09T07:05:18;99771.78;;;17.61;89.11
41515;BME280;27247;48.020;16.720;2022-09-09T07:09:29;99765.66;;;17.78;88.16
41515;BME280;27247;48.020;16.720;2022-09-09T07:13:41;99768.75;;;18.00;86.92
41515;BME280;27247;48.020;16.720;2022-09-09T07:17:52;99783.13;;;18.31;87.13
41515;BME280;27247;48.020;16.720;2022-09-09T07:22:03;99776.09;;;18.60;85.50
41515;BME280;27247;48.020;16.720;2022-09-09T07:26:19;99772.63;;;19.01;85.09
41515;BME280;27247;48.020;16.720;2022-09-09T07:30:29;99777.03;;;19.13;82.63
41515;BME280;27247;48.020;16.720;2022-09-09T07:34:40;99780.25;;;19.45;81.97
41515;BME280;27247;48.020;16.720;2022-09-09T07:38:53;99772.69;;;19.36;79.19
41515;BME280;27247;48.020;16.720;2022-09-09T07:43:06;99772.69;;;19.48;80.23
41515;BME280;27247;48.020;16.720;2022-09-09T07:47:17;99774.13;;;19.50;79.46
41515;BME280;27247;48.020;16.720;2022-09-09T07:51:29;99774.72;;;19.75;78.57
41515;BME280;27247;48.020;16.720;2022-09-09T07:55:40;99769.84;;;20.24;76.71
41515;BME280;27247;48.020;16.720;2022-09-09T07:59:51;99768.63;;;20.72;75.62
41515;BME280;27247;48.020;16.720;2022-09-09T08:04:05;99772.41;;;20.99;74.64
41515;BME280;27247;48.020;16.720;2022-09-09T08:08:17;99783.81;;;21.47;74.10
41515;BME280;27247;48.020;16.720;2022-09-09T08:12:27;99783.78;;;21.80;74.46
41515;BME280;27247;48.020;16.720;2022-09-09T08:16:40;99783.56;;;22.20;73.68
41515;BME280;27247;48.020;16.720;2022-09-09T08:20:51;99776.09;;;22.33;72.82
41515;BME280;27247;48.020;16.720;2022-09-09T08:25:01;99785.53;;;22.74;71.98
41515;BME280;27247;48.020;16.720;2022-09-09T08:29:12;99783.91;;;22.95;70.27
41515;BME280;27247;48.020;16.720;2022-09-09T08:33:23;99772.72;;;23.23;69.31
41515;BME280;27247;48.020;16.720;2022-09-09T08:37:35;99778.88;;;23.45;68.48
41515;BME280;27247;48.020;16.720;2022-09-09T08:42:05;99776.09;;;23.72;66.47
41515;BME280;27247;48.020;16.720;2022-09-09T08:50:43;99778.41;;;23.53;67.37
41515;BME280;27247;48.020;16.720;2022-09-09T08:54:58;99773.66;;;23.39;67.49
41515;BME280;27247;48.020;16.720;2022-09-09T08:59:15;99771.03;;;23.54;67.06
41515;BME280;27247;48.020;16.720;2022-09-09T09:12:19;99773.13;;;24.26;66.32
41515;BME280;27247;48.020;16.720;2022-09-09T09:21:15;99753.31;;;24.56;64.04
41515;BME280;27247;48.020;16.720;2022-09-09T09:25:34;99748.34;;;24.38;62.85
41515;BME280;27247;48.020;16.720;2022-09-09T09:29:47;99752.38;;;24.25;63.24
41515;BME280;27247;48.020;16.720;2022-09-09T09:33:59;99746.13;;;24.30;64.44
41515;BME280;27247;48.020;16.720;2022-09-09T09:38:21;99740.16;;;24.43;64.51
41515;BME280;27247;48.020;16.720;2022-09-09T09:42:32;99730.59;;;24.45;64.42
41515;BME280;27247;48.020;16.720;2022-09-09T09:46:42;99724.88;;;24.42;60.87
41515;BME280;27247;48.020;16.720;2022-09-09T09:51:01;99720.50;;;24.41;62.25
41515;BME280;27247;48.020;16.720;2022-09-09T09:55:16;99723.25;;;24.61;61.66
41515;BME280;27247;48.020;16.720;2022-09-09T10:03:59;99714.25;;;24.56;62.36
41515;BME280;27247;48.020;16.720;2022-09-09T10:08:12;99705.25;;;24.75;60.53
41515;BME280;27247;48.020;16.720;2022-09-09T10:12:43;99703.63;;;24.84;60.46
41515;BME280;27247;48.020;16.720;2022-09-09T10:22:14;99704.97;;;24.72;59.33
41515;BME280;27247;48.020;16.720;2022-09-09T10:35:48;99707.44;;;24.94;58.38
41515;BME280;27247;48.020;16.720;2022-09-09T10:49:18;99709.38;;;25.49;57.65
41515;BME280;27247;48.020;16.720;2022-09-09T10:53:37;99699.56;;;25.07;56.73
41515;BME280;27247;48.020;16.720;2022-09-09T10:57:54;99702.25;;;24.92;56.72
41515;BME280;27247;48.020;16.720;2022-09-09T11:02:15;99706.09;;;25.42;56.05
41515;BME280;27247;48.020;16.720;2022-09-09T11:06:32;99698.91;;;25.82;55.12
41515;BME280;27247;48.020;16.720;2022-09-09T11:15:20;99680.66;;;26.70;53.38
41515;BME280;27247;48.020;16.720;2022-09-09T11:19:36;99680.88;;;26.79;52.16
41515;BME280;27247;48.020;16.720;2022-09-09T11:23:59;99685.09;;;27.06;53.26
41515;BME280;27247;48.020;16.720;2022-09-09T11:37:17;99686.38;;;26.35;53.43
41515;BME280;27247;48.020;16.720;2022-09-09T11:41:34;99691.13;;;26.14;53.67
41515;BME280;27247;48.020;16.720;2022-09-09T11:45:55;99682.94;;;25.99;53.80
41515;BME280;27247;48.020;16.720;2022-09-09T11:54:33;99678.59;;;26.52;52.18
41515;BME280;27247;48.020;16.720;2022-09-09T11:59:18;99671.84;;;26.39;50.61
41515;BME280;27247;48.020;16.720;2022-09-09T12:08:16;99650.44;;;27.15;50.62
41515;BME280;27247;48.020;16.720;2022-09-09T12:12:37;99647.72;;;27.67;49.62
41515;BME280;27247;48.020;16.720;2022-09-09T12:16:48;99642.72;;;27.93;50.61
41515;BME280;27247;48.020;16.720;2022-09-09T12:21:11;99646.13;;;28.28;49.42
41515;BME280;27247;48.020;16.720;2022-09-09T12:34:23;99643.16;;;26.95;49.91
41515;BME280;27247;48.020;16.720;2022-09-09T12:38:40;99633.63;;;26.87;50.89
41515;BME280;27247;48.020;16.720;2022-09-09T12:42:51;99621.13;;;26.76;50.70
41515;BME280;27247;48.020;16.720;2022-09-09T12:47:03;99606.16;;;26.63;50.21
41515;BME280;27247;48.020;16.720;2022-09-09T12:51:21;99600.06;;;26.37;50.62
41515;BME280;27247;48.020;16.720;2022-09-09T12:55:37;99592.22;;;26.16;51.30
41515;BME280;27247;48.020;16.720;2022-09-09T12:59:48;99588.38;;;26.17;51.40
41515;BME280;27247;48.020;16.720;2022-09-09T13:03:59;99590.47;;;26.35;50.59
41515;BME280;27247;48.020;16.720;2022-09-09T13:08:11;99581.56;;;26.14;50.55
41515;BME280;27247;48.020;16.720;2022-09-09T13:12:22;99585.56;;;25.77;51.68
41515;BME280;27247;48.020;16.720;2022-09-09T13:16:35;99577.16;;;25.59;52.74
41515;BME280;27247;48.020;16.720;2022-09-09T13:20:47;99579.91;;;25.54;52.62
41515;BME280;27247;48.020;16.720;2022-09-09T13:25:00;99579.13;;;25.48;52.69
41515;BME280;27247;48.020;16.720;2022-09-09T13:29:17;99591.19;;;25.37;52.13
41515;BME280;27247;48.020;16.720;2022-09-09T13:37:42;99573.38;;;25.44;52.12
41515;BME280;27247;48.020;16.720;2022-09-09T13:41:52;99575.88;;;25.36;53.25
41515;BME280;27247;48.020;16.720;2022-09-09T13:46:33;99561.91;;;25.37;53.32
41515;BME280;27247;48.020;16.720;2022-09-09T13:50:57;99559.22;;;25.27;53.14
41515;BME280;27247;48.020;16.720;2022-09-09T13:55:09;99563.91;;;25.17;53.65
41515;BME280;27247;48.020;16.720;2022-09-09T13:59:20;99564.22;;;25.05;53.46
41515;BME280;27247;48.020;16.720;2022-09-09T14:03:31;99554.34;;;24.94;53.84
41515;BME280;27247;48.020;16.720;2022-09-09T14:07:42;99562.00;;;24.81;53.69
41515;BME280;27247;48.020;16.720;2022-09-09T14:11:53;99551.66;;;24.68;53.58
41515;BME280;27247;48.020;16.720;2022-09-09T14:16:05;99554.09;;;24.65;53.25
41515;BME280;27247;48.020;16.720;2022-09-09T14:20:15;99558.75;;;24.64;53.50
41515;BME280;27247;48.020;16.720;2022-09-09T14:24:27;99560.41;;;24.55;53.61
41515;BME280;27247;48.020;16.720;2022-09-09T14:28:37;99557.41;;;24.51;53.08
41515;BME280;27247;48.020;16.720;2022-09-09T14:32:50;99558.22;;;24.42;53.58
41515;BME280;27247;48.020;16.720;2022-09-09T14:37:00;99569.16;;;24.32;54.26
41515;BME280;27247;48.020;16.720;2022-09-09T14:41:13;99569.16;;;24.32;54.70
41515;BME280;27247;48.020;16.720;2022-09-09T14:45:26;99574.88;;;24.35;55.52
41515;BME280;27247;48.020;16.720;2022-09-09T14:49:37;99564.72;;;24.26;56.10
41515;BME280;27247;48.020;16.720;2022-09-09T14:53:50;99555.19;;;24.23;55.67
41515;BME280;27247;48.020;16.720;2022-09-09T14:58:01;99554.09;;;24.19;55.90
41515;BME280;27247;48.020;16.720;2022-09-09T15:02:11;99543.16;;;24.09;54.75
41515;BME280;27247;48.020;16.720;2022-09-09T15:06:25;99539.03;;;24.01;55.50
41515;BME280;27247;48.020;16.720;2022-09-09T15:10:35;99531.34;;;23.88;56.36
41515;BME280;27247;48.020;16.720;2022-09-09T15:14:47;99534.59;;;23.80;57.30
41515;BME280;27247;48.020;16.720;2022-09-09T15:18:59;99538.41;;;23.69;57.06
41515;BME280;27247;48.020;16.720;2022-09-09T15:23:10;99531.75;;;23.49;58.40
41515;BME280;27247;48.020;16.720;2022-09-09T15:27:21;99506.09;;;23.35;58.64
41515;BME280;27247;48.020;16.720;2022-09-09T15:31:31;99517.22;;;23.29;59.18
41515;BME280;27247;48.020;16.720;2022-09-09T15:35:42;99526.28;;;23.39;57.76
41515;BME280;27247;48.020;16.720;2022-09-09T15:39:52;99541.81;;;23.39;57.44
41515;BME280;27247;48.020;16.720;2022-09-09T15:44:03;99549.19;;;23.38;57.67
41515;BME280;27247;48.020;16.720;2022-09-09T15:48:14;99555.72;;;23.37;58.09
41515;BME280;27247;48.020;16.720;2022-09-09T15:52:24;99551.34;;;23.31;57.15
41515;BME280;27247;48.020;16.720;2022-09-09T15:56:34;99561.69;;;23.29;56.98
41515;BME280;27247;48.020;16.720;2022-09-09T16:00:45;99557.81;;;23.20;58.29
41515;BME280;27247;48.020;16.720;2022-09-09T16:04:56;99564.66;;;23.22;58.68
41515;BME280;27247;48.020;16.720;2022-09-09T16:09:07;99569.84;;;23.24;57.79
41515;BME280;27247;48.020;16.720;2022-09-09T16:13:18;99578.00;;;23.19;58.39
41515;BME280;27247;48.020;16.720;2022-09-09T16:17:28;99573.63;;;23.18;58.62
41515;BME280;27247;48.020;16.720;2022-09-09T16:21:42;99572.53;;;23.19;58.89
41515;BME280;27247;48.020;16.720;2022-09-09T16:25:55;99568.09;;;23.03;59.58
41515;BME280;27247;48.020;16.720;2022-09-09T16:30:06;99579.25;;;23.01;60.64
41515;BME280;27247;48.020;16.720;2022-09-09T16:34:17;99574.50;;;22.86;63.52
41515;BME280;27247;48.020;16.720;2022-09-09T16:38:28;99572.97;;;22.69;66.35
41515;BME280;27247;48.020;16.720;2022-09-09T16:42:40;99582.28;;;22.41;68.58
41515;BME280;27247;48.020;16.720;2022-09-09T16:46:50;99582.56;;;22.12;70.50
41515;BME280;27247;48.020;16.720;2022-09-09T16:51:07;99580.13;;;21.89;71.43
41515;BME280;27247;48.020;16.720;2022-09-09T16:55:19;99578.16;;;21.62;72.78
41515;BME280;27247;48.020;16.720;2022-09-09T16:59:30;99585.69;;;21.55;73.75
41515;BME280;27247;48.020;16.720;2022-09-09T17:03:42;99586.66;;;21.44;74.52
41515;BME280;27247;48.020;16.720;2022-09-09T17:07:53;99591.84;;;21.46;75.92
41515;BME280;27247;48.020;16.720;2022-09-09T17:12:05;99603.22;;;21.43;76.44
41515;BME280;27247;48.020;16.720;2022-09-09T17:16:18;99603.97;;;21.38;76.63
41515;BME280;27247;48.020;16.720;2022-09-09T17:20:35;99602.69;;;21.24;75.94
41515;BME280;27247;48.020;16.720;2022-09-09T17:24:46;99613.72;;;21.17;75.62
41515;BME280;27247;48.020;16.720;2022-09-09T17:28:57;99613.00;;;21.05;75.93
41515;BME280;27247;48.020;16.720;2022-09-09T17:33:10;99630.38;;;21.04;76.25
41515;BME280;27247;48.020;16.720;2022-09-09T17:37:21;99630.88;;;21.01;76.65
41515;BME280;27247;48.020;16.720;2022-09-09T17:41:37;99652.53;;;20.96;77.93
41515;BME280;27247;48.020;16.720;2022-09-09T17:45:47;99657.72;;;20.81;79.40
41515;BME280;27247;48.020;16.720;2022-09-09T17:49:58;99671.25;;;20.64;79.16
41515;BME280;27247;48.020;16.720;2022-09-09T17:54:14;99677.09;;;20.56;79.58
41515;BME280;27247;48.020;16.720;2022-09-09T17:58:25;99682.94;;;20.36;82.51
41515;BME280;27247;48.020;16.720;2022-09-09T18:02:36;99701.69;;;20.09;86.18
41515;BME280;27247;48.020;16.720;2022-09-09T18:06:49;99704.84;;;19.66;87.70
41515;BME280;27247;48.020;16.720;2022-09-09T18:11:03;99715.56;;;19.26;90.03
41515;BME280;27247;48.020;16.720;2022-09-09T18:15:14;99714.44;;;18.92;94.26
41515;BME280;27247;48.020;16.720;2022-09-09T18:19:27;99719.88;;;18.62;96.24
41515;BME280;27247;48.020;16.720;2022-09-09T18:23:40;99720.78;;;18.26;97.16
41515;BME280;27247;48.020;16.720;2022-09-09T18:27:51;99719.59;;;18.03;98.98
41515;BME280;27247;48.020;16.720;2022-09-09T18:32:04;99727.06;;;17.90;100.00
41515;BME280;27247;48.020;16.720;2022-09-09T18:36:19;99715.50;;;17.82;100.00
41515;BME280;27247;48.020;16.720;2022-09-09T18:40:30;99713.84;;;17.81;100.00
41515;BME280;27247;48.020;16.720;2022-09-09T18:44:41;99717.97;;;17.84;100.00
41515;BME280;27247;48.020;16.720;2022-09-09T18:48:52;99712.72;;;17.89;100.00
41515;BME280;27247;48.020;16.720;2022-09-09T18:53:02;99707.59;;;17.81;100.00
41515;BME280;27247;48.020;16.720;2022-09-09T18:57:13;99709.09;;;17.77;100.00
41515;BME280;27247;48.020;16.720;2022-09-09T19:01:24;99696.88;;;17.74;100.00
41515;BME280;27247;48.020;16.720;2022-09-09T19:05:34;99702.53;;;17.66;100.00
41515;BME280;27247;48.020;16.720;2022-09-09T19:09:46;99709.78;;;17.66;100.00
41515;BME280;27247;48.020;16.720;2022-09-09T19:13:58;99702.72;;;17.71;100.00
41515;BME280;27247;48.020;16.720;2022-09-09T19:18:09;99695.81;;;17.75;100.00
41515;BME280;27247;48.020;16.720;2022-09-09T19:22:19;99703.56;;;17.72;100.00
41515;BME280;27247;48.020;16.720;2022-09-09T19:26:33;99702.38;;;17.61;100.00
41515;BME280;27247;48.020;16.720;2022-09-09T19:30:46;99696.06;;;17.49;100.00
41515;BME280;27247;48.020;16.720;2022-09-09T19:34:56;99700.47;;;17.43;100.00
41515;BME280;27247;48.020;16.720;2022-09-09T19:39:08;99698.88;;;17.36;100.00
41515;BME280;27247;48.020;16.720;2022-09-09T19:43:19;99698.50;;;17.32;100.00
41515;BME280;27247;48.020;16.720;2022-09-09T19:47:29;99698.13;;;17.29;100.00
41515;BME280;27247;48.020;16.720;2022-09-09T19:51:40;99694.22;;;17.24;100.00
41515;BME280;27247;48.020;16.720;2022-09-09T19:55:50;99701.13;;;17.20;100.00
41515;BME280;27247;48.020;16.720;2022-09-09T20:00:01;99706.13;;;17.17;100.00
41515;BME280;27247;48.020;16.720;2022-09-09T20:04:13;99701.34;;;17.19;100.00
41515;BME280;27247;48.020;16.720;2022-09-09T20:08:24;99722.13;;;17.18;100.00
41515;BME280;27247;48.020;16.720;2022-09-09T20:12:36;99718.53;;;17.24;100.00
41515;BME280;27247;48.020;16.720;2022-09-09T20:16:46;99716.66;;;17.25;100.00
41515;BME280;27247;48.020;16.720;2022-09-09T20:21:01;99728.94;;;17.21;100.00
41515;BME280;27247;48.020;16.720;2022-09-09T20:25:12;99730.59;;;17.22;100.00
41515;BME280;27247;48.020;16.720;2022-09-09T20:29:24;99734.41;;;17.14;100.00
41515;BME280;27247;48.020;16.720;2022-09-09T20:33:35;99735.44;;;17.13;100.00
41515;BME280;27247;48.020;16.720;2022-09-09T20:37:45;99728.69;;;17.04;100.00
41515;BME280;27247;48.020;16.720;2022-09-09T20:41:55;99725.81;;;16.99;100.00
41515;BME280;27247;48.020;16.720;2022-09-09T20:46:06;99738.44;;;17.05;100.00
41515;BME280;27247;48.020;16.720;2022-09-09T20:50:16;99742.16;;;17.04;100.00
41515;BME280;27247;48.020;16.720;2022-09-09T20:54:27;99749.28;;;16.99;100.00
41515;BME280;27247;48.020;16.720;2022-09-09T20:58:39;99752.25;;;16.90;100.00
41515;BME280;27247;48.020;16.720;2022-09-09T21:02:49;99749.09;;;16.94;100.00
41515;BME280;27247;48.020;16.720;2022-09-09T21:07:00;99750.81;;;16.88;100.00
41515;BME280;27247;48.020;16.720;2022-09-09T21:11:12;99747.34;;;16.81;100.00
41515;BME280;27247;48.020;16.720;2022-09-09T21:15:22;99738.81;;;16.84;100.00
41515;BME280;27247;48.020;16.720;2022-09-09T21:19:33;99745.03;;;16.84;100.00
41515;BME280;27247;48.020;16.720;2022-09-09T21:23:44;99743.63;;;16.75;100.00
41515;BME280;27247;48.020;16.720;2022-09-09T21:27:55;99749.47;;;16.72;100.00
41515;BME280;27247;48.020;16.720;2022-09-09T21:32:05;99749.66;;;16.64;100.00
41515;BME280;27247;48.020;16.720;2022-09-09T21:36:15;99754.06;;;16.65;100.00
41515;BME280;27247;48.020;16.720;2022-09-09T21:40:26;99765.03;;;16.64;100.00
41515;BME280;27247;48.020;16.720;2022-09-09T21:44:36;99761.94;;;16.60;100.00
41515;BME280;27247;48.020;16.720;2022-09-09T21:48:46;99769.19;;;16.59;100.00
41515;BME280;27247;48.020;16.720;2022-09-09T21:52:57;99772.16;;;16.51;100.00
41515;BME280;27247;48.020;16.720;2022-09-09T21:57:07;99758.06;;;16.49;100.00
41515;BME280;27247;48.020;16.720;2022-09-09T22:01:18;99760.13;;;16.47;100.00
41515;BME280;27247;48.020;16.720;2022-09-09T22:05:30;99763.88;;;16.46;100.00
41515;BME280;27247;48.020;16.720;2022-09-09T22:09:40;99775.50;;;16.47;100.00
41515;BME280;27247;48.020;16.720;2022-09-09T22:13:50;99764.28;;;16.50;100.00
41515;BME280;27247;48.020;16.720;2022-09-09T22:18:04;99774.44;;;16.48;100.00
41515;BME280;27247;48.020;16.720;2022-09-09T22:22:14;99770.53;;;16.44;100.00
41515;BME280;27247;48.020;16.720;2022-09-09T22:26:26;99761.47;;;16.32;100.00
41515;BME280;27247;48.020;16.720;2022-09-09T22:30:37;99754.22;;;16.25;100.00
41515;BME280;27247;48.020;16.720;2022-09-09T22:34:47;99761.72;;;16.23;100.00
41515;BME280;27247;48.020;16.720;2022-09-09T22:39:00;99766.66;;;16.26;100.00
41515;BME280;27247;48.020;16.720;2022-09-09T22:43:16;99766.50;;;16.15;100.00
41515;BME280;27247;48.020;16.720;2022-09-09T22:47:27;99770.47;;;16.12;100.00
41515;BME280;27247;48.020;16.720;2022-09-09T22:51:37;99774.00;;;16.13;100.00
41515;BME280;27247;48.020;16.720;2022-09-09T22:55:58;99771.06;;;16.14;100.00
41515;BME280;27247;48.020;16.720;2022-09-09T23:00:10;99771.69;;;16.16;100.00
41515;BME280;27247;48.020;16.720;2022-09-09T23:04:22;99766.50;;;16.15;100.00
41515;BME280;27247;48.020;16.720;2022-09-09T23:08:35;99763.59;;;16.16;100.00
41515;BME280;27247;48.020;16.720;2022-09-09T23:12:46;99762.34;;;16.19;100.00
41515;BME280;27247;48.020;16.720;2022-09-09T23:16:57;99756.09;;;16.25;100.00
41515;BME280;27247;48.020;16.720;2022-09-09T23:21:09;99764.38;;;16.30;100.00
41515;BME280;27247;48.020;16.720;2022-09-09T23:25:20;99763.50;;;16.36;100.00
41515;BME280;27247;48.020;16.720;2022-09-09T23:29:31;99755.44;;;16.36;100.00
41515;BME280;27247;48.020;16.720;2022-09-09T23:33:42;99763.28;;;16.38;100.00
41515;BME280;27247;48.020;16.720;2022-09-09T23:37:52;99765.97;;;16.44;100.00
41515;BME280;27247;48.020;16.720;2022-09-09T23:42:03;99761.00;;;16.41;100.00
41515;BME280;27247;48.020;16.720;2022-09-09T23:46:20;99766.41;;;16.41;100.00
41515;BME280;27247;48.020;16.720;2022-09-09T23:50:31;99757.28;;;16.36;100.00